Latest Weather Observations for Thargomindah

IDQ60801

Issued at 8:35 am EST Thursday 27 November 2014 (issued every 30 minutes, with the page automatically refreshed every 10 minutes)

About weather observations | Map of weather stations | Latest weather observations for QLD | Other Formats
Station Details ID: 045025 Name: THARGOMINDAH AIRPORT Lat: -27.99 Lon: 143.81 Height: 130.89 m
Data from the previous 72 hours. | See also: Recent months at Thargomindah
Date/Time
EST
Temp
°C
App
Temp
°C
Dew
Point
Rel
Hum
%
Delta-T
°C
Wind Press
QNH
hPa
Press
MSL
hPa
Rain
since 9 am
mm
Dir
 
Spd
km/h
Gust
km/h
Spd
kts
Gust
kts
27/08:30am 29.7 21.3 -2.7 12 14.8 E 32 43 17 23 1016.1 - 0.0
27/08:00am 28.1 19.9 -3.9 12 14.1 E 30 41 16 22 1016.2 - 0.0
27/07:30am 27.5 19.6 -4.4 12 13.9 E 28 41 15 22 1016.2 - 0.0
27/07:00am 25.8 19.2 -3.7 14 12.8 SE 22 33 12 18 1015.7 - 0.0
27/06:30am 24.9 18.2 -4.4 14 12.5 SE 22 35 12 19 1015.4 - 0.0
27/06:00am 24.2 17.9 -4.0 15 12.0 SE 20 28 11 15 1015.2 1014.4 0.0
27/05:30am 23.9 18.1 -4.3 15 11.9 SE 17 26 9 14 1014.9 - 0.0
27/05:00am 24.1 18.0 -4.1 15 12.0 SE 19 24 10 13 1014.7 - 0.0
27/04:30am 24.3 18.6 -4.0 15 12.1 SE 17 22 9 12 1014.4 - 0.0
27/04:00am 24.5 18.7 -4.7 14 12.3 SSE 17 20 9 11 1014.2 - 0.0
27/03:30am 24.9 19.9 -4.4 14 12.5 SE 13 20 7 11 1014.2 - 0.0
27/03:00am 25.6 20.7 -3.8 14 12.7 SE 13 20 7 11 1014.0 1013.3 0.0
27/02:30am 26.0 21.1 -3.5 14 12.9 SE 13 19 7 10 1014.0 - 0.0
27/02:00am 26.6 20.9 -4.0 13 13.3 SE 17 24 9 13 1013.9 - 0.0
27/01:30am 27.0 21.3 -3.7 13 13.5 SE 17 26 9 14 1014.1 - 0.0
27/01:00am 27.5 21.3 -4.4 12 13.9 SE 19 28 10 15 1014.3 - 0.0
27/12:30am 28.1 21.8 -3.9 12 14.1 SE 20 30 11 16 1014.6 - 0.0
27/12:00am 28.4 22.1 -3.7 12 14.3 SE 20 30 11 16 1014.9 1014.2 0.0
 
Date/Time
EST
Temp
°C
App
Temp
°C
Dew
Point
Rel
Hum
%
Delta-T
°C
Wind Press
QNH
hPa
Press
MSL
hPa
Rain
since 9 am
mm
Dir
 
Spd
km/h
Gust
km/h
Spd
kts
Gust
kts
26/11:30pm 29.0 22.4 -3.2 12 14.5 SE 22 30 12 16 1014.9 - 0.0
26/11:00pm 29.6 22.7 -2.8 12 14.8 SE 24 37 13 20 1015.0 - 0.0
26/10:30pm 30.1 23.6 -2.4 12 15.0 SE 22 30 12 16 1015.0 - 0.0
26/10:00pm 30.8 25.0 0.2 14 14.8 SSE 20 28 11 15 1014.7 - 0.0
26/09:30pm 31.1 26.2 2.3 16 14.5 SE 17 22 9 12 1014.5 - 0.0
26/09:00pm 31.5 27.4 4.3 18 14.2 SSE 15 20 8 11 1014.2 1013.4 0.0
26/08:30pm 32.0 27.2 4.7 18 14.4 SSE 19 24 10 13 1013.9 - 0.0
26/08:00pm 32.3 28.6 6.5 20 14.0 SSE 15 20 8 11 1013.6 - 0.0
26/07:30pm 32.7 29.9 6.8 20 14.2 SSE 11 15 6 8 1013.6 - 0.0
26/07:00pm 33.5 29.3 8.2 21 14.2 SSE 20 28 11 15 1013.1 - 0.0
26/06:30pm 34.0 29.0 7.9 20 14.6 S 24 32 13 17 1012.8 - 0.0
26/06:00pm 34.4 30.0 7.5 19 15.0 SSE 20 30 11 16 1012.4 1011.5 0.0
26/05:30pm 34.9 29.7 7.1 18 15.4 S 24 32 13 17 1012.1 - 0.0
26/05:00pm 35.2 31.5 6.5 17 15.8 S 15 24 8 13 1012.0 - 0.0
26/04:30pm 35.4 32.0 7.5 18 15.6 S 15 24 8 13 1012.1 - 0.0
26/04:00pm 34.9 31.8 7.1 18 15.4 ESE 13 24 7 13 1012.3 - 0.0
26/03:30pm 34.8 32.6 7.8 19 15.2 E 9 19 5 10 1012.6 - 0.0
26/03:00pm 35.0 31.5 8.7 20 15.0 E 17 22 9 12 1013.0 1012.1 0.0
26/02:30pm 34.5 31.5 7.5 19 15.1 SSE 13 22 7 12 1013.4 - 0.0
26/02:00pm 34.2 32.4 9.4 22 14.2 SSE 9 15 5 8 1013.9 - 0.0
26/01:30pm 34.5 32.2 9.0 21 14.6 ESE 11 20 6 11 1014.2 - 0.0
26/01:00pm 34.4 30.4 8.2 20 14.8 SSE 19 30 10 16 1014.6 - 0.0
26/12:30pm 33.6 31.3 9.0 22 14.0 ESE 11 19 6 10 1015.1 - 0.0
26/12:00pm 32.8 29.2 8.3 22 13.7 SE 17 28 9 15 1015.3 1014.5 0.0
26/11:30am 33.2 29.3 7.2 20 14.3 E 17 32 9 17 1015.6 - 0.0
26/11:00am 32.3 28.7 5.0 18 14.5 ESE 13 26 7 14 1016.1 - 0.0
26/10:30am 31.4 26.5 5.0 19 13.9 SE 20 30 11 16 1016.3 - 0.0
26/10:00am 30.9 26.1 4.6 19 13.7 E 19 28 10 15 1016.6 - 0.0
26/09:30am 29.4 24.6 4.8 21 12.8 ESE 19 30 10 16 1016.6 - 0.0
26/09:00am 29.2 24.8 4.6 21 12.7 E 17 26 9 14 1016.7 1015.8 0.0
26/08:30am 27.9 23.4 4.2 22 12.1 ESE 17 30 9 16 1016.7 - 0.0
26/08:00am 26.2 21.3 4.1 24 11.1 ESE 19 24 10 13 1016.6 - 0.0
26/07:30am 25.0 20.9 4.2 26 10.4 ESE 15 22 8 12 1016.5 - 0.0
26/07:00am 24.0 19.6 2.8 25 10.3 SE 15 19 8 10 1016.4 - 0.0
26/06:30am 23.5 18.8 1.2 23 10.4 SE 15 20 8 11 1016.2 - 0.0
26/06:00am 22.8 18.4 0.6 23 10.2 SE 13 20 7 11 1015.8 1015.0 0.0
26/05:30am 22.7 17.6 0.5 23 10.2 SE 17 20 9 11 1015.2 - 0.0
26/05:00am 22.8 18.0 0.0 22 10.4 SE 15 20 8 11 1015.0 - 0.0
26/04:30am 23.1 18.3 0.2 22 10.5 SSE 15 19 8 10 1015.0 - 0.0
26/04:00am 23.5 18.8 0.6 22 10.6 SSE 15 19 8 10 1014.8 - 0.0
26/03:30am 23.8 19.0 0.2 21 10.9 SE 15 20 8 11 1014.7 - 0.0
26/03:00am 24.4 19.7 0.7 21 11.1 SE 15 20 8 11 1014.7 1013.8 0.0
26/02:30am 25.0 19.2 -0.2 19 11.6 SE 20 28 11 15 1014.5 - 0.0
26/02:00am 25.5 20.0 1.6 21 11.4 SE 20 30 11 16 1014.5 - 0.0
26/01:30am 25.9 20.9 3.8 24 11.0 SSE 19 28 10 15 1014.7 - 0.0
26/01:00am 26.1 22.1 6.7 29 10.2 SSE 17 22 9 12 1014.7 - 0.0
26/12:30am 26.3 22.6 7.8 31 9.9 SE 17 22 9 12 1014.9 - 0.0
26/12:00am 26.5 22.9 8.5 32 9.8 SSE 17 22 9 12 1015.2 1014.4 0.0
 
Date/Time
EST
Temp
°C
App
Temp
°C
Dew
Point
Rel
Hum
%
Delta-T
°C
Wind Press
QNH
hPa
Press
MSL
hPa
Rain
since 9 am
mm
Dir
 
Spd
km/h
Gust
km/h
Spd
kts
Gust
kts
25/11:30pm 26.9 23.5 9.3 33 9.7 SSE 17 24 9 13 1015.6 - 0.0
25/11:00pm 27.0 23.3 9.4 33 9.8 SSE 19 24 10 13 1015.7 - 0.0
25/10:30pm 27.2 24.0 10.0 34 9.6 SSE 17 24 9 13 1015.8 - 0.0
25/10:00pm 27.6 24.1 10.3 34 9.8 SSE 19 28 10 15 1015.6 - 0.0
25/09:30pm 28.0 25.0 10.7 34 9.9 SSE 17 24 9 13 1015.6 - 0.0
25/09:00pm 28.4 25.0 10.6 33 10.1 SSE 19 24 10 13 1015.2 1014.5 0.0
25/08:30pm 29.0 25.4 10.6 32 10.5 SSE 20 32 11 17 1014.9 - 0.0
25/08:00pm 29.3 26.2 10.4 31 10.8 SSE 17 24 9 13 1014.6 - 0.0
25/07:30pm 29.9 26.6 10.9 31 11.0 SSE 19 24 10 13 1014.5 - 0.0
25/07:00pm 30.5 27.2 11.0 30 11.3 S 19 26 10 14 1014.2 - 0.0
25/06:30pm 30.9 27.6 10.8 29 11.6 SSE 19 28 10 15 1013.8 - 0.0
25/06:00pm 31.3 28.1 11.1 29 11.8 SSE 19 26 10 14 1013.3 1012.5 0.0
25/05:30pm 31.8 28.1 11.6 29 11.9 S 22 33 12 18 1013.1 - 0.0
25/05:00pm 31.8 28.3 12.1 30 11.7 S 22 26 12 14 1013.0 - 0.0
25/04:30pm 31.8 29.2 12.1 30 11.7 SSE 17 28 9 15 1013.2 - 0.0
25/04:00pm 32.4 30.1 13.1 31 11.6 S 17 24 9 13 1013.3 - 0.0
25/03:30pm 32.3 31.1 14.0 33 11.2 SE 13 20 7 11 1013.5 - 0.0
25/03:00pm 31.9 29.3 13.2 32 11.3 S 19 26 10 14 1014.0 1013.3 0.0
25/02:30pm 31.2 30.0 13.9 35 10.5 SE 13 22 7 12 1014.5 - 0.0
25/02:00pm 30.0 29.0 14.5 38 9.5 SE 13 19 7 10 1014.9 - 0.0
25/01:30pm 29.6 27.6 15.0 41 9.0 SE 19 32 10 17 1015.2 - 0.0
25/01:00pm 28.5 26.6 15.1 44 8.2 SE 19 28 10 15 1015.6 - 0.0
25/12:30pm 27.3 25.1 15.0 47 7.5 SSE 20 30 11 16 1015.7 - 0.0
25/12:00pm 26.7 24.7 15.4 50 6.9 SSE 20 28 11 15 1016.1 1015.2 0.0
25/11:30am 26.6 24.6 15.6 50 6.7 SSE 20 30 11 16 1016.2 - 0.0
25/11:00am 27.0 25.5 16.3 52 6.6 SSE 19 26 10 14 1016.4 - 0.0
25/10:30am 26.8 25.2 16.1 52 6.6 SE 19 28 10 15 1016.4 - 0.0
25/10:00am 26.2 23.7 16.2 54 6.2 ESE 24 32 13 17 1016.4 - 0.0
25/09:30am 25.3 23.3 16.4 57 5.5 SSE 22 32 12 17 1016.6 - 0.0
25/09:00am 24.9 23.1 16.1 58 5.4 SSE 20 26 11 14 1016.7 1015.8 2.8
25/08:30am 24.6 23.1 16.8 62 4.8 SSE 20 32 11 17 1016.7 - 2.8
25/08:00am 24.0 21.6 16.5 63 4.6 SSE 24 32 13 17 1016.4 - 2.8
25/07:30am 23.8 21.9 16.8 65 4.3 SSE 22 33 12 18 1016.0 - 2.6
25/07:00am 23.7 22.4 16.7 65 4.3 SSE 19 28 10 15 1015.8 - 2.6
25/06:30am 23.7 22.4 17.2 67 4.0 SSE 20 30 11 16 1015.2 - 2.6
25/06:00am 23.4 23.8 18.9 76 2.9 SSE 15 19 8 10 1014.6 1013.8 2.6
25/05:30am 23.3 23.7 19.0 77 2.7 SE 15 17 8 9 1013.8 - 2.6
25/05:00am 23.5 24.7 19.8 80 2.4 SSE 13 19 7 10 1013.5 - 2.6
25/04:30am 23.2 25.0 20.3 84 1.9 SSW 11 15 6 8 1013.3 - 2.6
25/04:00am 23.4 25.2 20.3 83 2.0 SSW 11 13 6 7 1012.7 - 2.6
25/03:30am 23.8 27.9 20.7 83 2.0 CALM 0 0 0 0 1012.0 - 2.6
25/03:00am 23.9 26.6 20.2 80 2.4 ESE 6 7 3 4 1011.9 1011.0 2.6
25/02:30am 24.1 26.5 20.0 78 2.7 E 7 11 4 6 1012.0 - 2.6
25/02:00am 24.5 26.5 20.0 76 2.9 SE 9 13 5 7 1012.2 - 2.6
25/01:30am 24.8 26.3 20.5 77 2.8 SSE 13 17 7 9 1012.4 - 2.6
25/01:00am 24.6 27.5 21.7 84 1.9 SSE 9 11 5 6 1013.1 - 2.6
25/12:30am 25.0 25.8 21.7 82 2.2 SSE 20 28 11 15 1013.1 - 2.6
25/12:00am 24.2 26.9 22.1 88 1.4 NE 11 15 6 8 1012.5 1011.8 2.6
 
Date/Time
EST
Temp
°C
App
Temp
°C
Dew
Point
Rel
Hum
%
Delta-T
°C
Wind Press
QNH
hPa
Press
MSL
hPa
Rain
since 9 am
mm
Dir
 
Spd
km/h
Gust
km/h
Spd
kts
Gust
kts
24/11:30pm 24.6 27.6 21.9 85 1.8 S 9 11 5 6 1011.9 - 2.6
24/11:00pm 24.7 27.0 22.0 85 1.8 S 13 17 7 9 1012.3 - 2.6
24/10:30pm 24.6 27.4 22.3 87 1.5 S 11 15 6 8 1012.1 - 2.6
24/10:00pm 24.5 27.1 22.0 86 1.7 SW 11 13 6 7 1012.3 - 2.6
24/09:30pm 24.7 29.3 21.8 84 1.9 CALM 0 6 0 3 1012.0 - 2.6
24/09:00pm 24.9 29.4 21.6 82 2.2 CALM 0 0 0 0 1011.9 1011.0 2.6
24/08:30pm 24.9 29.1 21.0 79 2.6 CALM 0 0 0 0 1011.7 - 2.6
24/08:00pm 24.8 28.7 21.1 80 2.4 ENE 2 9 1 5 1011.5 - 2.6
24/07:30pm 24.8 27.5 21.3 81 2.3 ENE 9 11 5 6 1011.7 - 2.6
24/07:00pm 24.8 26.6 21.1 80 2.4 E 13 19 7 10 1011.8 - 2.6
24/06:30pm 24.8 27.0 21.1 80 2.4 E 11 15 6 8 1012.2 - 2.6
24/06:00pm 24.7 26.9 21.2 81 2.3 ESE 11 19 6 10 1012.3 1011.4 2.6
24/05:30pm 24.5 26.1 21.4 83 2.1 ESE 15 20 8 11 1012.0 - 2.6
24/05:00pm 24.2 26.2 21.5 85 1.8 SE 13 15 7 8 1012.5 - 2.6
24/04:30pm 24.5 26.8 21.4 83 2.1 E 11 17 6 9 1013.0 - 1.8
24/04:00pm 25.7 27.8 20.9 75 3.2 E 11 15 6 8 1013.2 - 0.2
24/03:30pm 26.0 28.3 20.6 72 3.6 SW 9 15 5 8 1011.8 - 0.2
24/03:00pm 25.7 26.0 20.5 73 3.4 SSW 19 24 10 13 1010.7 1009.8 0.2
24/02:30pm 25.2 26.1 20.9 77 2.8 WSW 17 26 9 14 1011.4 - 0.0
24/02:00pm 25.6 26.2 21.3 77 2.9 WSW 20 30 11 16 1011.7 - 0.0
24/01:30pm 25.9 26.3 21.8 78 2.7 S 22 28 12 15 1011.5 - 0.0
24/01:00pm 25.4 23.4 21.1 77 2.8 SSW 33 46 18 25 1012.0 - 0.0
24/12:30pm 26.2 23.2 20.7 71 3.6 SW 37 57 20 31 1013.0 - 0.0
24/12:18pm 26.8 22.7 19.9 66 4.5 SW 41 63 22 34 1012.3 - 0.0
24/12:07pm 31.8 26.9 15.3 37 10.3 WSW 35 54 19 29 1012.0 - 0.0
24/12:00pm 35.7 32.9 13.2 26 13.8 N 20 28 11 15 1011.1 1010.3 0.0
24/11:30am 36.1 33.2 13.0 25 14.1 N 20 26 11 14 1010.9 - 0.0
24/11:00am 36.0 32.7 12.9 25 14.1 N 22 33 12 18 1011.0 - 0.0
24/10:30am 36.2 32.4 12.4 24 14.4 NNE 24 32 13 17 1011.1 - 0.0
24/10:00am 37.0 34.0 12.4 23 14.9 N 20 30 11 16 1011.4 - 0.0
24/09:30am 35.7 33.3 12.6 25 14.0 NE 17 28 9 15 1011.3 - 0.0
24/09:00am 36.2 34.3 13.0 24 14.2 NE 15 19 8 10 1011.7 1010.8 0.0

Other Formats:

Comma delimited format used in spreadsheet applications
http://www.bom.gov.au/fwo/IDQ60801/IDQ60801.95492.axf

JavaScript Object Notation format (JSON) in row-major order
http://www.bom.gov.au/fwo/IDQ60801/IDQ60801.95492.json